Check out our new PWSWeather beta!
PWSweather.com
Personal Weather Stations
Station Observations
PENICUIKWS
PenicuikGB

PenicuikGB

Lat: 55.830932, Lon: -3.224533000000065

Elevation: 166

Station Type: Fine Offset

http://weather.penicuik.org

High Low Average
Temperature 67.8°F19.9°C 50.5°F10.3°C 58.9°F14.9°C
Dew Point 61.6°F16.4°C 46.4°F8.0°C 55.8°F13.2°C
Winds 2.7 mph 4.3 kmh Calm Calm 1.0 mph S1.6 kmh S
Wind Gusts 6.0 mph9.7 kmh -- 2.0 mph3.2 kmh
Humidity 95% 79% 90%
Pressure 30.02 in1016.6 mb 29.89 in1012.2 mb -
Precipitation 0.13 in3.3 mm - -
Hour Temp Dew Point Humidity Winds Wind Gusts Pressure Precip Precip Rate Daily Precip Total
12:00 AM 50.7°F10.4°C 46.4°F8.0°C 85% 0.2 mph WNW0.3 kmh WNW 0.7 mph1.1 kmh 30.02 in1016.6 mb 0.00 in0.0 mm 0.00 in0.0 mm 0.00 in0.0 mm
12:15 AM 50.5°F10.3°C 46.5°F8.1°C 86% 0.6 mph NW1.0 kmh NW 1.6 mph2.6 kmh 30.02 in1016.6 mb 0.00 in0.0 mm 0.00 in0.0 mm 0.00 in0.0 mm
12:30 AM 50.5°F10.3°C 46.8°F8.2°C 87% 0.5 mph NW0.8 kmh NW 0.7 mph1.1 kmh 30.02 in1016.6 mb 0.00 in0.0 mm 0.00 in0.0 mm 0.00 in0.0 mm
12:45 AM 50.9°F10.5°C 47.2°F8.4°C 87% 0.2 mph WSW0.3 kmh WSW 1.6 mph2.6 kmh 30.02 in1016.6 mb 0.00 in0.0 mm 0.00 in0.0 mm 0.00 in0.0 mm
01:00 AM 51.1°F10.6°C 47.7°F8.7°C 88% 0.2 mph N0.3 kmh N 0.7 mph1.1 kmh 30.02 in1016.6 mb 0.00 in0.0 mm 0.00 in0.0 mm 0.00 in0.0 mm
01:15 AM 51.1°F10.6°C 47.4°F8.6°C 87% 0.1 mph NW0.2 kmh NW 0.7 mph1.1 kmh 30.02 in1016.6 mb 0.00 in0.0 mm 0.00 in0.0 mm 0.00 in0.0 mm
01:30 AM 51.1°F10.6°C 47.4°F8.6°C 87% 0.1 mph NW0.2 kmh NW 0.7 mph1.1 kmh 30.01 in1016.3 mb 0.00 in0.0 mm 0.00 in0.0 mm 0.00 in0.0 mm
01:45 AM 51.1°F10.6°C 47.4°F8.6°C 87% 0.1 mph WNW0.2 kmh WNW 0.7 mph1.1 kmh 30.01 in1016.3 mb 0.00 in0.0 mm 0.00 in0.0 mm 0.00 in0.0 mm
02:00 AM 51.1°F10.6°C 47.7°F8.7°C 88% Calm Calm 0.7 mph1.1 kmh 30.01 in1016.3 mb 0.00 in0.0 mm 0.00 in0.0 mm 0.00 in0.0 mm
02:15 AM 51.1°F10.6°C 48.0°F8.9°C 89% 0.1 mph E0.2 kmh E 0.7 mph1.1 kmh 30.00 in1015.9 mb 0.00 in0.0 mm 0.00 in0.0 mm 0.00 in0.0 mm
02:30 AM 51.1°F10.6°C 48.0°F8.9°C 89% Calm Calm -- 29.99 in1015.6 mb 0.00 in0.0 mm 0.00 in0.0 mm 0.00 in0.0 mm
02:45 AM 51.1°F10.6°C 48.3°F9.1°C 90% Calm Calm -- 29.99 in1015.6 mb 0.00 in0.0 mm 0.00 in0.0 mm 0.00 in0.0 mm
03:00 AM 51.1°F10.6°C 48.5°F9.2°C 91% 0.2 mph N0.3 kmh N 0.7 mph1.1 kmh 29.98 in1015.2 mb 0.00 in0.0 mm 0.00 in0.0 mm 0.00 in0.0 mm
03:15 AM 52.0°F11.1°C 49.1°F9.5°C 90% Calm Calm -- 29.97 in1014.9 mb 0.00 in0.0 mm 0.00 in0.0 mm 0.00 in0.0 mm
03:30 AM 52.0°F11.1°C 49.1°F9.5°C 90% 0.4 mph S0.6 kmh S 1.6 mph2.6 kmh 29.97 in1014.9 mb 0.00 in0.0 mm 0.00 in0.0 mm 0.00 in0.0 mm
03:45 AM 52.0°F11.1°C 49.4°F9.7°C 91% 0.1 mph WSW0.2 kmh WSW 0.7 mph1.1 kmh 29.97 in1014.9 mb 0.00 in0.0 mm 0.00 in0.0 mm 0.00 in0.0 mm
04:00 AM 52.2°F11.2°C 49.6°F9.8°C 91% Calm Calm -- 29.96 in1014.6 mb 0.00 in0.0 mm 0.00 in0.0 mm 0.00 in0.0 mm
04:15 AM 52.2°F11.2°C 49.6°F9.8°C 91% Calm Calm -- 29.96 in1014.6 mb 0.00 in0.0 mm 0.00 in0.0 mm 0.00 in0.0 mm
04:30 AM 52.3°F11.3°C 49.8°F9.9°C 91% Calm Calm -- 29.96 in1014.6 mb 0.00 in0.0 mm 0.00 in0.0 mm 0.00 in0.0 mm
04:45 AM 52.3°F11.3°C 50.1°F10.1°C 92% Calm Calm -- 29.96 in1014.6 mb 0.00 in0.0 mm 0.00 in0.0 mm 0.00 in0.0 mm
05:00 AM 52.5°F11.4°C 50.3°F10.2°C 92% Calm Calm -- 29.95 in1014.2 mb 0.00 in0.0 mm 0.00 in0.0 mm 0.00 in0.0 mm
05:15 AM 52.7°F11.5°C 50.4°F10.2°C 92% Calm Calm -- 29.95 in1014.2 mb 0.00 in0.0 mm 0.00 in0.0 mm 0.00 in0.0 mm
05:30 AM 53.2°F11.8°C 51.3°F10.7°C 93% 0.2 mph S0.3 kmh S 0.7 mph1.1 kmh 29.95 in1014.2 mb 0.00 in0.0 mm 0.00 in0.0 mm 0.00 in0.0 mm
05:45 AM 53.4°F11.9°C 51.5°F10.8°C 93% Calm Calm -- 29.95 in1014.2 mb 0.00 in0.0 mm 0.00 in0.0 mm 0.00 in0.0 mm
06:00 AM 53.4°F11.9°C 51.7°F10.9°C 94% Calm Calm -- 29.95 in1014.2 mb 0.00 in0.0 mm 0.00 in0.0 mm 0.00 in0.0 mm
06:15 AM 53.8°F12.1°C 51.8°F11.0°C 93% Calm Calm -- 29.96 in1014.6 mb 0.00 in0.0 mm 0.00 in0.0 mm 0.00 in0.0 mm
06:30 AM 54.5°F12.5°C 52.5°F11.4°C 93% Calm Calm -- 29.95 in1014.2 mb 0.00 in0.0 mm 0.00 in0.0 mm 0.00 in0.0 mm
06:45 AM 54.7°F12.6°C 52.7°F11.5°C 93% 0.2 mph SW0.3 kmh SW 1.6 mph2.6 kmh 29.95 in1014.2 mb 0.01 in0.3 mm 0.04 in1.0 mm 0.01 in0.3 mm
07:00 AM 55.8°F13.2°C 54.4°F12.4°C 95% 0.4 mph NW0.6 kmh NW 1.6 mph2.6 kmh 29.94 in1013.9 mb 0.01 in0.3 mm 0.00 in0.0 mm 0.01 in0.3 mm
07:15 AM 57.0°F13.9°C 55.3°F12.9°C 94% 1.0 mph NE1.6 kmh NE 1.6 mph2.6 kmh 29.95 in1014.2 mb 0.01 in0.3 mm 0.00 in0.0 mm 0.01 in0.3 mm
07:30 AM 57.4°F14.1°C 55.1°F12.8°C 92% 1.9 mph WSW3.1 kmh WSW 3.8 mph6.1 kmh 29.93 in1013.5 mb 0.01 in0.3 mm 0.00 in0.0 mm 0.01 in0.3 mm
07:45 AM 57.7°F14.3°C 55.1°F12.8°C 91% 1.3 mph W2.1 kmh W 3.1 mph5.0 kmh 29.93 in1013.5 mb 0.01 in0.3 mm 0.00 in0.0 mm 0.02 in0.5 mm
08:00 AM 57.7°F14.3°C 55.1°F12.8°C 91% 0.9 mph WNW1.4 kmh WNW 2.2 mph3.5 kmh 29.93 in1013.5 mb 0.01 in0.3 mm 0.00 in0.0 mm 0.02 in0.5 mm
08:15 AM 57.7°F14.3°C 55.4°F13.0°C 92% 1.4 mph WSW2.3 kmh WSW 3.1 mph5.0 kmh 29.93 in1013.5 mb 0.02 in0.5 mm 0.04 in1.0 mm 0.04 in1.0 mm
08:30 AM 57.7°F14.3°C 55.4°F13.0°C 92% 1.2 mph WNW1.9 kmh WNW 3.1 mph5.0 kmh 29.93 in1013.5 mb 0.02 in0.5 mm 0.00 in0.0 mm 0.04 in1.0 mm
08:45 AM 58.6°F14.8°C 56.6°F13.7°C 93% 0.8 mph N1.3 kmh N 2.2 mph3.5 kmh 29.93 in1013.5 mb 0.02 in0.5 mm 0.00 in0.0 mm 0.05 in1.3 mm
09:00 AM 59.4°F15.2°C 57.0°F13.9°C 92% 1.5 mph NW2.4 kmh NW 3.1 mph5.0 kmh 29.93 in1013.5 mb 0.02 in0.5 mm 0.00 in0.0 mm 0.05 in1.3 mm
09:15 AM 59.5°F15.3°C 57.2°F14.0°C 92% 1.1 mph W1.8 kmh W 1.6 mph2.6 kmh 29.92 in1013.2 mb 0.02 in0.5 mm 0.00 in0.0 mm 0.06 in1.5 mm
09:30 AM 59.0°F15.0°C 56.4°F13.6°C 91% 1.2 mph SW1.9 kmh SW 1.6 mph2.6 kmh 29.92 in1013.2 mb 0.02 in0.5 mm 0.00 in0.0 mm 0.06 in1.5 mm
09:45 AM 58.8°F14.9°C 56.8°F13.8°C 93% 1.7 mph S2.7 kmh S 5.4 mph8.7 kmh 29.92 in1013.2 mb 0.01 in0.3 mm 0.00 in0.0 mm 0.06 in1.5 mm
10:00 AM 58.8°F14.9°C 56.8°F13.8°C 93% 1.2 mph E1.9 kmh E 2.2 mph3.5 kmh 29.92 in1013.2 mb 0.01 in0.3 mm 0.00 in0.0 mm 0.06 in1.5 mm
10:15 AM 59.0°F15.0°C 56.7°F13.7°C 92% 1.7 mph SE2.7 kmh SE 3.1 mph5.0 kmh 29.92 in1013.2 mb 0.00 in0.0 mm 0.00 in0.0 mm 0.06 in1.5 mm
10:30 AM 59.5°F15.3°C 57.2°F14.0°C 92% 1.8 mph ESE2.9 kmh ESE 3.8 mph6.1 kmh 29.92 in1013.2 mb 0.00 in0.0 mm 0.00 in0.0 mm 0.06 in1.5 mm
10:45 AM 59.9°F15.5°C 57.6°F14.2°C 92% 1.7 mph S2.7 kmh S 3.1 mph5.0 kmh 29.91 in1012.9 mb 0.00 in0.0 mm 0.00 in0.0 mm 0.06 in1.5 mm
11:00 AM 60.3°F15.7°C 57.6°F14.2°C 91% 1.9 mph SSE3.1 kmh SSE 3.1 mph5.0 kmh 29.92 in1013.2 mb 0.01 in0.3 mm 0.01 in0.3 mm 0.07 in1.8 mm
11:15 AM 61.0°F16.1°C 57.7°F14.3°C 89% 1.7 mph S2.7 kmh S 4.5 mph7.2 kmh 29.91 in1012.9 mb 0.01 in0.3 mm 0.00 in0.0 mm 0.07 in1.8 mm
11:30 AM 61.3°F16.3°C 58.1°F14.5°C 89% 1.4 mph N2.3 kmh N 3.1 mph5.0 kmh 29.92 in1013.2 mb 0.01 in0.3 mm 0.00 in0.0 mm 0.07 in1.8 mm
11:45 AM 62.1°F16.7°C 58.5°F14.7°C 88% 1.3 mph ENE2.1 kmh ENE 2.2 mph3.5 kmh 29.91 in1012.9 mb 0.01 in0.3 mm 0.00 in0.0 mm 0.07 in1.8 mm
12:00 PM 62.2°F16.8°C 58.0°F14.4°C 86% 1.9 mph SSW3.1 kmh SSW 3.1 mph5.0 kmh 29.92 in1013.2 mb 0.00 in0.0 mm 0.00 in0.0 mm 0.07 in1.8 mm
12:15 PM 62.6°F17.0°C 58.0°F14.4°C 85% 1.9 mph WNW3.1 kmh WNW 3.8 mph6.1 kmh 29.91 in1012.9 mb 0.00 in0.0 mm 0.00 in0.0 mm 0.07 in1.8 mm
12:30 PM 62.4°F16.9°C 58.5°F14.7°C 87% 1.5 mph SSE2.4 kmh SSE 3.1 mph5.0 kmh 29.91 in1012.9 mb 0.02 in0.5 mm 0.08 in2.0 mm 0.09 in2.3 mm
12:45 PM 62.4°F16.9°C 58.8°F14.9°C 88% 1.3 mph N2.1 kmh N 2.2 mph3.5 kmh 29.92 in1013.2 mb 0.02 in0.5 mm 0.00 in0.0 mm 0.09 in2.3 mm
01:00 PM 62.2°F16.8°C 59.0°F15.0°C 89% 1.2 mph SSE1.9 kmh SSE 3.8 mph6.1 kmh 29.92 in1013.2 mb 0.02 in0.5 mm 0.00 in0.0 mm 0.09 in2.3 mm
01:15 PM 62.2°F16.8°C 59.0°F15.0°C 89% 2.0 mph SSE3.2 kmh SSE 5.4 mph8.7 kmh 29.92 in1013.2 mb 0.02 in0.5 mm 0.00 in0.0 mm 0.09 in2.3 mm
01:30 PM 62.4°F16.9°C 59.5°F15.3°C 90% 2.7 mph S4.3 kmh S 4.5 mph7.2 kmh 29.92 in1013.2 mb 0.02 in0.5 mm 0.00 in0.0 mm 0.12 in3.0 mm
01:45 PM 62.8°F17.1°C 59.5°F15.3°C 89% 2.3 mph E3.7 kmh E 3.8 mph6.1 kmh 29.92 in1013.2 mb 0.04 in1.0 mm 0.08 in2.0 mm 0.13 in3.3 mm
02:00 PM 62.8°F17.1°C 59.5°F15.3°C 89% 2.1 mph SSW3.4 kmh SSW 4.5 mph7.2 kmh 29.92 in1013.2 mb 0.04 in1.0 mm 0.00 in0.0 mm 0.13 in3.3 mm
02:15 PM 63.1°F17.3°C 59.9°F15.5°C 89% 1.9 mph NE3.1 kmh NE 3.8 mph6.1 kmh 29.92 in1013.2 mb 0.04 in1.0 mm 0.00 in0.0 mm 0.13 in3.3 mm
02:30 PM 63.9°F17.7°C 60.3°F15.7°C 88% 2.0 mph WSW3.2 kmh WSW 3.8 mph6.1 kmh 29.91 in1012.9 mb 0.01 in0.3 mm 0.00 in0.0 mm 0.13 in3.3 mm
02:45 PM 64.6°F18.1°C 60.6°F15.9°C 87% 1.5 mph N2.4 kmh N 3.1 mph5.0 kmh 29.91 in1012.9 mb 0.00 in0.0 mm 0.00 in0.0 mm 0.13 in3.3 mm
03:00 PM 64.9°F18.3°C 61.0°F16.1°C 87% 1.3 mph NE2.1 kmh NE 2.2 mph3.5 kmh 29.90 in1012.5 mb 0.00 in0.0 mm 0.00 in0.0 mm 0.13 in3.3 mm
03:15 PM 65.7°F18.7°C 61.1°F16.2°C 85% 2.3 mph SSW3.7 kmh SSW 4.5 mph7.2 kmh 29.91 in1012.9 mb 0.00 in0.0 mm 0.00 in0.0 mm 0.13 in3.3 mm
03:30 PM 65.7°F18.7°C 60.4°F15.8°C 83% 2.5 mph WSW4.0 kmh WSW 4.5 mph7.2 kmh 29.91 in1012.9 mb 0.00 in0.0 mm 0.00 in0.0 mm 0.13 in3.3 mm
03:45 PM 66.2°F19.0°C 60.6°F15.9°C 82% 1.1 mph E1.8 kmh E 1.6 mph2.6 kmh 29.91 in1012.9 mb 0.00 in0.0 mm 0.00 in0.0 mm 0.13 in3.3 mm
04:00 PM 67.3°F19.6°C 61.6°F16.4°C 82% 1.5 mph SSE2.4 kmh SSE 2.2 mph3.5 kmh 29.90 in1012.5 mb 0.00 in0.0 mm 0.00 in0.0 mm 0.13 in3.3 mm
04:15 PM 67.5°F19.7°C 61.5°F16.4°C 81% 2.1 mph E3.4 kmh E 3.1 mph5.0 kmh 29.90 in1012.5 mb 0.00 in0.0 mm 0.00 in0.0 mm 0.13 in3.3 mm
04:30 PM 67.8°F19.9°C 61.1°F16.2°C 79% 1.9 mph NW3.1 kmh NW 6.0 mph9.7 kmh 29.90 in1012.5 mb 0.00 in0.0 mm 0.00 in0.0 mm 0.13 in3.3 mm
04:45 PM 66.7°F19.3°C 60.0°F15.6°C 79% 1.8 mph W2.9 kmh W 3.1 mph5.0 kmh 29.89 in1012.2 mb 0.00 in0.0 mm 0.00 in0.0 mm 0.13 in3.3 mm
05:00 PM 66.6°F19.2°C 60.6°F15.9°C 81% 1.8 mph SSW2.9 kmh SSW 4.5 mph7.2 kmh 29.91 in1012.9 mb 0.00 in0.0 mm 0.00 in0.0 mm 0.13 in3.3 mm
05:15 PM 66.6°F19.2°C 61.3°F16.3°C 83% 1.7 mph S2.7 kmh S 3.1 mph5.0 kmh 29.91 in1012.9 mb 0.00 in0.0 mm 0.00 in0.0 mm 0.13 in3.3 mm
05:30 PM 65.7°F18.7°C 61.1°F16.2°C 85% 1.1 mph S1.8 kmh S 2.2 mph3.5 kmh 29.91 in1012.9 mb 0.00 in0.0 mm 0.00 in0.0 mm 0.13 in3.3 mm
05:45 PM 65.5°F18.6°C 61.5°F16.4°C 87% 0.9 mph W1.4 kmh W 2.2 mph3.5 kmh 29.91 in1012.9 mb 0.00 in0.0 mm 0.00 in0.0 mm 0.13 in3.3 mm
06:00 PM 64.9°F18.3°C 61.3°F16.3°C 88% 1.9 mph S3.1 kmh S 3.8 mph6.1 kmh 29.90 in1012.5 mb 0.00 in0.0 mm 0.00 in0.0 mm 0.13 in3.3 mm
06:15 PM 65.1°F18.4°C 61.5°F16.4°C 88% 2.6 mph SW4.2 kmh SW 3.8 mph6.1 kmh 29.91 in1012.9 mb 0.00 in0.0 mm 0.00 in0.0 mm 0.13 in3.3 mm
06:30 PM 64.6°F18.1°C 60.6°F15.9°C 87% 1.6 mph S2.6 kmh S 3.1 mph5.0 kmh 29.91 in1012.9 mb 0.00 in0.0 mm 0.00 in0.0 mm 0.13 in3.3 mm
06:45 PM 63.9°F17.7°C 59.9°F15.5°C 87% 1.7 mph N2.7 kmh N 3.8 mph6.1 kmh 29.92 in1013.2 mb 0.00 in0.0 mm 0.00 in0.0 mm 0.13 in3.3 mm
07:00 PM 63.5°F17.5°C 59.9°F15.5°C 88% 1.0 mph WNW1.6 kmh WNW 1.6 mph2.6 kmh 29.91 in1012.9 mb 0.00 in0.0 mm 0.00 in0.0 mm 0.13 in3.3 mm
07:15 PM 62.8°F17.1°C 59.2°F15.1°C 88% 1.2 mph WSW1.9 kmh WSW 3.8 mph6.1 kmh 29.92 in1013.2 mb 0.00 in0.0 mm 0.00 in0.0 mm 0.13 in3.3 mm
07:30 PM 62.6°F17.0°C 59.3°F15.2°C 89% 0.9 mph NW1.4 kmh NW 2.2 mph3.5 kmh 29.92 in1013.2 mb 0.00 in0.0 mm 0.00 in0.0 mm 0.13 in3.3 mm
07:45 PM 62.4°F16.9°C 59.5°F15.3°C 90% 0.7 mph W1.1 kmh W 2.2 mph3.5 kmh 29.92 in1013.2 mb 0.00 in0.0 mm 0.00 in0.0 mm 0.13 in3.3 mm
08:00 PM 62.1°F16.7°C 59.4°F15.2°C 91% 0.5 mph SW0.8 kmh SW 1.6 mph2.6 kmh 29.92 in1013.2 mb 0.00 in0.0 mm 0.00 in0.0 mm 0.13 in3.3 mm
08:15 PM 61.3°F16.3°C 58.7°F14.8°C 91% 0.4 mph NW0.6 kmh NW 1.6 mph2.6 kmh 29.92 in1013.2 mb 0.00 in0.0 mm 0.00 in0.0 mm 0.13 in3.3 mm
08:30 PM 61.0°F16.1°C 58.7°F14.8°C 92% 0.4 mph NW0.6 kmh NW 0.7 mph1.1 kmh 29.92 in1013.2 mb 0.00 in0.0 mm 0.00 in0.0 mm 0.13 in3.3 mm
08:45 PM 60.6°F15.9°C 58.6°F14.8°C 93% 0.8 mph WSW1.3 kmh WSW 1.6 mph2.6 kmh 29.93 in1013.5 mb 0.00 in0.0 mm 0.00 in0.0 mm 0.13 in3.3 mm
09:00 PM 60.6°F15.9°C 58.9°F14.9°C 94% 0.7 mph NE1.1 kmh NE 1.6 mph2.6 kmh 29.93 in1013.5 mb 0.00 in0.0 mm 0.00 in0.0 mm 0.13 in3.3 mm
09:15 PM 60.4°F15.8°C 58.7°F14.8°C 94% 0.6 mph NW1.0 kmh NW 1.6 mph2.6 kmh 29.93 in1013.5 mb 0.00 in0.0 mm 0.00 in0.0 mm 0.13 in3.3 mm
09:30 PM 60.1°F15.6°C 58.4°F14.7°C 94% 0.7 mph NNW1.1 kmh NNW 1.6 mph2.6 kmh 29.93 in1013.5 mb 0.00 in0.0 mm 0.00 in0.0 mm 0.13 in3.3 mm
09:45 PM 59.9°F15.5°C 58.2°F14.6°C 94% 0.5 mph NW0.8 kmh NW 2.2 mph3.5 kmh 29.93 in1013.5 mb 0.00 in0.0 mm 0.00 in0.0 mm 0.13 in3.3 mm
10:00 PM 59.7°F15.4°C 58.0°F14.4°C 94% 0.9 mph NNW1.4 kmh NNW 1.6 mph2.6 kmh 29.94 in1013.9 mb 0.00 in0.0 mm 0.00 in0.0 mm 0.13 in3.3 mm
10:15 PM 59.7°F15.4°C 58.0°F14.4°C 94% 0.5 mph SW0.8 kmh SW 1.6 mph2.6 kmh 29.93 in1013.5 mb 0.00 in0.0 mm 0.00 in0.0 mm 0.13 in3.3 mm
10:30 PM 59.5°F15.3°C 57.8°F14.3°C 94% 0.6 mph NNW1.0 kmh NNW 1.6 mph2.6 kmh 29.93 in1013.5 mb 0.00 in0.0 mm 0.00 in0.0 mm 0.13 in3.3 mm
10:45 PM 59.5°F15.3°C 57.8°F14.3°C 94% 0.8 mph S1.3 kmh S 2.2 mph3.5 kmh 29.92 in1013.2 mb 0.00 in0.0 mm 0.00 in0.0 mm 0.13 in3.3 mm
11:00 PM 59.4°F15.2°C 57.9°F14.4°C 95% 0.3 mph W0.5 kmh W 1.6 mph2.6 kmh 29.93 in1013.5 mb 0.00 in0.0 mm 0.00 in0.0 mm 0.07 in1.8 mm
11:15 PM 59.4°F15.2°C 57.9°F14.4°C 95% 0.1 mph SE0.2 kmh SE 1.6 mph2.6 kmh 29.92 in1013.2 mb 0.00 in0.0 mm 0.00 in0.0 mm 0.07 in1.8 mm
11:30 PM 58.5°F14.7°C 57.0°F13.9°C 95% Calm Calm -- 29.92 in1013.2 mb 0.00 in0.0 mm 0.00 in0.0 mm 0.07 in1.8 mm
11:45 PM 57.7°F14.3°C 56.3°F13.5°C 95% 0.1 mph SW0.2 kmh SW 0.7 mph1.1 kmh 29.93 in1013.5 mb 0.00 in0.0 mm 0.00 in0.0 mm 0.07 in1.8 mm